Time;durP1;ratioP1;P1;durP2;ratioP2;P2;SDS_P1;SDS_P2;PMS_P1;PMS_P2;Temp;Humidity;BMP_temperature;BMP_pressure;BME280_temperature;BME280_humidity;BME280_pressure;Samples;Min_cycle;Max_cycle;Signal;HPM_P1;HPM_P2
2023/08/03 00:01:52;;;;;;;0.60;0.60;;;;;;;;;;5006024;28;20049;-68
2023/08/03 00:04:17;;;;;;;2.58;1.10;;;;;;;;;;5003658;28;20081;-71
2023/08/03 00:06:44;;;;;;;1.95;1.00;;;;;;;;;;5005676;28;20084;-69
2023/08/03 00:09:10;;;;;;;2.92;1.42;;;;;;;;;;5001543;28;20077;-69
2023/08/03 00:11:35;;;;;;;1.85;1.10;;;;;;;;;;5004496;28;20038;-69
2023/08/03 00:14:01;;;;;;;2.05;1.10;;;;;;;;;;5003817;28;20495;-68
2023/08/03 00:16:26;;;;;;;2.92;1.15;;;;;;;;;;5012044;28;20052;-68
2023/08/03 00:18:52;;;;;;;3.28;1.20;;;;;;;;;;5002681;28;20046;-68
2023/08/03 00:21:17;;;;;;;3.00;1.00;;;;;;;;;;5007723;28;20053;-69
2023/08/03 00:23:42;;;;;;;5.55;1.35;;;;;;;;;;5002226;28;20050;-69
2023/08/03 00:26:08;;;;;;;3.40;1.20;;;;;;;;;;5001639;28;20090;-69
2023/08/03 00:28:33;;;;;;;2.83;1.33;;;;;;;;;;5002369;28;20057;-68
2023/08/03 00:30:59;;;;;;;7.53;1.38;;;;;;;;;;5003056;28;21073;-68
2023/08/03 00:33:24;;;;;;;4.57;1.65;;;;;;;;;;5009838;28;20046;-69
2023/08/03 00:35:50;;;;;;;2.60;1.08;;;;;;;;;;5000711;28;20037;-70
2023/08/03 00:38:15;;;;;;;3.83;1.58;;;;;;;;;;5005331;28;20054;-68
2023/08/03 00:40:41;;;;;;;3.67;1.40;;;;;;;;;;5002510;28;20164;-70
2023/08/03 00:43:07;;;;;;;4.32;1.10;;;;;;;;;;5004046;28;20058;-69
2023/08/03 00:45:32;;;;;;;8.02;1.42;;;;;;;;;;5014191;28;20042;-69
2023/08/03 00:47:57;;;;;;;3.85;1.13;;;;;;;;;;5004404;28;20049;-69
2023/08/03 00:50:25;;;;;;;4.88;1.50;;;;;;;;;;5004920;28;20049;-68
2023/08/03 00:52:51;;;;;;;7.15;1.27;;;;;;;;;;5001304;28;20625;-71
2023/08/03 00:55:16;;;;;;;4.82;1.02;;;;;;;;;;5007208;28;20149;-69
2023/08/03 00:57:42;;;;;;;6.32;1.38;;;;;;;;;;5002432;28;20592;-69
2023/08/03 01:00:08;;;;;;;4.45;1.45;;;;;;;;;;5005773;28;20122;-70
2023/08/03 01:02:33;;;;;;;4.45;1.52;;;;;;;;;;5000828;28;20080;-71
2023/08/03 01:05:01;;;;;;;6.95;1.58;;;;;;;;;;5002200;28;20117;-70
2023/08/03 01:07:26;;;;;;;6.15;1.60;;;;;;;;;;5001978;28;20164;-69
2023/08/03 01:09:52;;;;;;;5.63;1.27;;;;;;;;;;5006052;28;20038;-69
2023/08/03 01:12:18;;;;;;;5.40;1.20;;;;;;;;;;5000167;28;20049;-68
2023/08/03 01:14:44;;;;;;;1.98;1.15;;;;;;;;;;5005116;28;20050;-69
2023/08/03 01:17:11;;;;;;;2.63;1.17;;;;;;;;;;5009339;28;20064;-69
2023/08/03 01:19:38;;;;;;;4.38;1.52;;;;;;;;;;5014442;28;20132;-69
2023/08/03 01:22:05;;;;;;;6.22;1.50;;;;;;;;;;5005943;28;20212;-69
2023/08/03 01:24:31;;;;;;;3.05;1.60;;;;;;;;;;5000389;28;20050;-68
2023/08/03 01:26:59;;;;;;;9.02;1.60;;;;;;;;;;5006594;28;20056;-70
2023/08/03 01:29:25;;;;;;;4.50;1.33;;;;;;;;;;5001775;28;20073;-69
2023/08/03 01:31:56;;;;;;;5.82;1.60;;;;;;;;;;4998224;28;20104;-69
2023/08/03 01:34:26;;;;;;;9.73;1.30;;;;;;;;;;5001745;28;20041;-70
2023/08/03 01:36:52;;;;;;;4.47;1.40;;;;;;;;;;5000297;28;20515;-69
2023/08/03 01:39:17;;;;;;;4.38;1.40;;;;;;;;;;4997418;28;20045;-69
2023/08/03 01:41:43;;;;;;;3.15;1.58;;;;;;;;;;5001489;28;20037;-72
2023/08/03 01:44:27;;;;;;;4.22;1.27;;;;;;;;;;5003031;28;20068;-69
2023/08/03 01:46:54;;;;;;;15.98;1.35;;;;;;;;;;5001911;28;20046;-69
2023/08/03 01:49:21;;;;;;;5.53;1.20;;;;;;;;;;5017801;28;20172;-69
2023/08/03 01:51:47;;;;;;;1.30;1.20;;;;;;;;;;5000543;28;20085;-70
2023/08/03 01:54:13;;;;;;;3.17;1.40;;;;;;;;;;4999029;28;20070;-68
2023/08/03 01:56:38;;;;;;;5.55;1.60;;;;;;;;;;4999595;28;20050;-70
2023/08/03 01:59:05;;;;;;;7.13;1.52;;;;;;;;;;4999908;28;20403;-69
2023/08/03 02:01:30;;;;;;;4.70;1.55;;;;;;;;;;4999641;28;20115;-69
2023/08/03 02:03:56;;;;;;;2.38;1.40;;;;;;;;;;5000502;28;20045;-69
2023/08/03 02:06:22;;;;;;;3.15;1.30;;;;;;;;;;5004649;28;20045;-69
2023/08/03 02:08:47;;;;;;;1.77;1.40;;;;;;;;;;5003054;28;20177;-69
2023/08/03 02:11:12;;;;;;;6.38;1.77;;;;;;;;;;5008214;28;20068;-70
2023/08/03 02:13:38;;;;;;;2.40;1.30;;;;;;;;;;5004028;28;20049;-71
2023/08/03 02:16:08;;;;;;;6.68;1.27;;;;;;;;;;5006507;28;20095;-69
2023/08/03 02:18:34;;;;;;;8.05;1.48;;;;;;;;;;5003580;28;21146;-72
2023/08/03 02:21:00;;;;;;;5.57;1.50;;;;;;;;;;5007157;28;20960;-70
2023/08/03 02:23:27;;;;;;;4.40;1.38;;;;;;;;;;5000040;28;20051;-68
2023/08/03 02:25:52;;;;;;;8.65;1.65;;;;;;;;;;4998312;28;21010;-69
2023/08/03 02:28:18;;;;;;;6.43;1.30;;;;;;;;;;4999589;28;20503;-69
2023/08/03 02:30:43;;;;;;;6.70;1.48;;;;;;;;;;5000257;28;20374;-69
2023/08/03 02:33:12;;;;;;;3.90;1.40;;;;;;;;;;5000461;28;21116;-69
2023/08/03 02:35:39;;;;;;;7.22;1.63;;;;;;;;;;5002927;28;20076;-69
2023/08/03 02:38:06;;;;;;;4.50;1.30;;;;;;;;;;4990497;28;20048;-68
2023/08/03 02:40:31;;;;;;;3.42;1.27;;;;;;;;;;5000349;28;20454;-71
2023/08/03 02:42:57;;;;;;;7.95;1.45;;;;;;;;;;4999384;28;20042;-69
2023/08/03 02:45:23;;;;;;;3.45;1.38;;;;;;;;;;4999140;28;20044;-71
2023/08/03 02:47:51;;;;;;;2.72;1.30;;;;;;;;;;4998206;28;20038;-69
2023/08/03 02:50:20;;;;;;;2.38;1.15;;;;;;;;;;5000949;28;20545;-69
2023/08/03 02:52:47;;;;;;;3.65;1.20;;;;;;;;;;4998782;28;20050;-69
2023/08/03 02:55:13;;;;;;;4.18;1.50;;;;;;;;;;4998696;28;20495;-69
2023/08/03 02:57:41;;;;;;;3.60;1.48;;;;;;;;;;5001402;28;20451;-71
2023/08/03 03:00:10;;;;;;;3.80;1.70;;;;;;;;;;5001475;28;20045;-69
2023/08/03 03:02:36;;;;;;;5.63;1.40;;;;;;;;;;4999981;28;20038;-70
2023/08/03 03:05:02;;;;;;;3.72;1.50;;;;;;;;;;4999213;28;20041;-69
2023/08/03 03:07:31;;;;;;;7.18;1.58;;;;;;;;;;4998978;28;20053;-69
2023/08/03 03:09:57;;;;;;;3.78;1.63;;;;;;;;;;4997632;28;20041;-68
2023/08/03 03:12:23;;;;;;;6.15;1.60;;;;;;;;;;4998422;28;20080;-70
2023/08/03 03:14:50;;;;;;;5.22;1.73;;;;;;;;;;5002554;28;20141;-70
2023/08/03 03:17:15;;;;;;;4.90;1.65;;;;;;;;;;5005915;28;20188;-69
2023/08/03 03:19:43;;;;;;;4.78;1.83;;;;;;;;;;5002817;28;20046;-71
2023/08/03 03:22:11;;;;;;;2.17;1.40;;;;;;;;;;4997900;28;20463;-70
2023/08/03 03:24:36;;;;;;;4.47;1.67;;;;;;;;;;5000917;28;20334;-69
2023/08/03 03:27:02;;;;;;;4.88;1.90;;;;;;;;;;4998679;28;20620;-68
2023/08/03 03:29:28;;;;;;;4.88;1.77;;;;;;;;;;4998264;28;20050;-69
2023/08/03 03:31:53;;;;;;;3.17;1.60;;;;;;;;;;4999091;28;20053;-69
2023/08/03 03:34:19;;;;;;;2.55;1.55;;;;;;;;;;5003870;28;20046;-69
2023/08/03 03:36:46;;;;;;;6.47;1.95;;;;;;;;;;4998630;28;20103;-69
2023/08/03 03:39:11;;;;;;;5.50;2.03;;;;;;;;;;4996749;28;20058;-69
2023/08/03 03:41:36;;;;;;;2.90;1.90;;;;;;;;;;4998531;28;20041;-70
2023/08/03 03:44:02;;;;;;;3.25;2.25;;;;;;;;;;4996874;28;20403;-69
2023/08/03 03:46:27;;;;;;;5.60;1.90;;;;;;;;;;4998609;28;20403;-70
2023/08/03 03:48:53;;;;;;;7.25;1.90;;;;;;;;;;4999320;28;20107;-70
2023/08/03 03:51:21;;;;;;;3.17;1.77;;;;;;;;;;5001737;28;20578;-70
2023/08/03 03:53:51;;;;;;;7.37;2.10;;;;;;;;;;5005480;28;20057;-69
2023/08/03 03:56:16;;;;;;;5.70;2.55;;;;;;;;;;5008667;28;20503;-70
2023/08/03 03:58:42;;;;;;;2.55;1.70;;;;;;;;;;5001772;28;20091;-71
2023/08/03 04:01:08;;;;;;;8.02;2.00;;;;;;;;;;5001829;28;20034;-69
2023/08/03 04:03:33;;;;;;;13.00;2.63;;;;;;;;;;5003182;28;20100;-70
2023/08/03 04:06:03;;;;;;;4.13;2.50;;;;;;;;;;5006217;28;20049;-68
2023/08/03 04:08:29;;;;;;;5.32;2.40;;;;;;;;;;5001423;28;20112;-69
2023/08/03 04:10:54;;;;;;;7.20;2.28;;;;;;;;;;5003052;28;20042;-69
2023/08/03 04:13:19;;;;;;;5.57;2.08;;;;;;;;;;5002011;28;20052;-69
2023/08/03 04:15:46;;;;;;;7.50;2.28;;;;;;;;;;5006091;28;20045;-70
2023/08/03 04:18:12;;;;;;;6.60;2.33;;;;;;;;;;5006409;28;20046;-70
2023/08/03 04:20:37;;;;;;;12.80;1.80;;;;;;;;;;5006229;28;20540;-71
2023/08/03 04:23:03;;;;;;;10.23;2.13;;;;;;;;;;5008757;28;20049;-71
2023/08/03 04:25:29;;;;;;;5.10;1.77;;;;;;;;;;5001512;28;20073;-70
2023/08/03 04:27:59;;;;;;;5.00;1.63;;;;;;;;;;5001794;28;20522;-70
2023/08/03 04:30:30;;;;;;;4.43;2.00;;;;;;;;;;5008610;28;20434;-71
2023/08/03 04:32:55;;;;;;;5.22;2.08;;;;;;;;;;5011271;28;20656;-70
2023/08/03 04:35:23;;;;;;;3.38;1.40;;;;;;;;;;5001233;28;20046;-70
2023/08/03 04:37:53;;;;;;;6.38;1.52;;;;;;;;;;5000348;28;20112;-71
2023/08/03 04:40:19;;;;;;;3.58;1.75;;;;;;;;;;5000108;28;20050;-70
2023/08/03 04:42:44;;;;;;;7.35;1.75;;;;;;;;;;5001238;28;20088;-70
2023/08/03 04:45:10;;;;;;;4.53;1.50;;;;;;;;;;5005278;28;20056;-70
2023/08/03 04:47:39;;;;;;;3.30;1.05;;;;;;;;;;5005793;28;20050;-69
2023/08/03 04:50:05;;;;;;;1.98;1.48;;;;;;;;;;5004257;28;20355;-70
2023/08/03 04:52:31;;;;;;;4.85;1.75;;;;;;;;;;5009849;28;20045;-70
2023/08/03 04:54:56;;;;;;;2.95;1.70;;;;;;;;;;5009031;28;20672;-71
2023/08/03 04:57:22;;;;;;;5.00;1.80;;;;;;;;;;5010963;28;20950;-70
2023/08/03 04:59:47;;;;;;;4.10;2.28;;;;;;;;;;5002815;28;20127;-70
2023/08/03 05:02:12;;;;;;;8.25;2.00;;;;;;;;;;4988620;28;20191;-69
2023/08/03 05:04:38;;;;;;;3.28;1.83;;;;;;;;;;5010976;28;20049;-70
2023/08/03 05:07:04;;;;;;;1.75;1.48;;;;;;;;;;5008589;28;20073;-69
2023/08/03 05:09:30;;;;;;;8.25;1.70;;;;;;;;;;5010550;28;20061;-69
2023/08/03 05:11:55;;;;;;;4.45;1.25;;;;;;;;;;4988719;28;20054;-70
2023/08/03 05:14:21;;;;;;;1.90;1.30;;;;;;;;;;5006765;28;20053;-69
2023/08/03 05:16:46;;;;;;;2.85;1.00;;;;;;;;;;5005690;28;20042;-69
2023/08/03 05:19:12;;;;;;;4.38;1.20;;;;;;;;;;5000032;28;20050;-69
2023/08/03 05:21:37;;;;;;;3.05;1.10;;;;;;;;;;5001643;28;20088;-70
2023/08/03 05:24:03;;;;;;;2.80;0.90;;;;;;;;;;5005227;28;20208;-70
2023/08/03 05:26:32;;;;;;;4.03;1.00;;;;;;;;;;5001604;28;20560;-70
2023/08/03 05:28:58;;;;;;;3.83;1.40;;;;;;;;;;5001942;28;20041;-70
2023/08/03 05:31:23;;;;;;;3.38;1.20;;;;;;;;;;5008750;28;20057;-70
2023/08/03 05:33:48;;;;;;;4.72;1.02;;;;;;;;;;5000688;28;20046;-70
2023/08/03 05:36:14;;;;;;;4.85;1.45;;;;;;;;;;5001402;28;20529;-70
2023/08/03 05:38:39;;;;;;;2.28;1.00;;;;;;;;;;5003129;28;20123;-70
2023/08/03 05:41:15;;;;;;;4.30;1.30;;;;;;;;;;5004642;28;20131;-70
2023/08/03 05:43:41;;;;;;;4.78;1.17;;;;;;;;;;5002740;28;20069;-70
2023/08/03 05:46:12;;;;;;;2.90;1.17;;;;;;;;;;5001211;28;20065;-70
2023/08/03 05:48:37;;;;;;;3.70;1.00;;;;;;;;;;5001437;28;20168;-70
2023/08/03 05:51:02;;;;;;;3.13;0.85;;;;;;;;;;5001341;28;20069;-70
2023/08/03 05:53:28;;;;;;;6.50;1.08;;;;;;;;;;5000117;28;20046;-69
2023/08/03 05:55:54;;;;;;;5.38;1.33;;;;;;;;;;4999457;28;20049;-70
2023/08/03 05:58:19;;;;;;;2.53;0.77;;;;;;;;;;5003061;28;20046;-70
2023/08/03 06:00:49;;;;;;;3.83;1.27;;;;;;;;;;5005947;28;20054;-70
2023/08/03 06:03:16;;;;;;;5.63;1.17;;;;;;;;;;5000042;28;20082;-70
2023/08/03 06:05:49;;;;;;;4.40;1.13;;;;;;;;;;5002813;28;20638;-70
2023/08/03 06:08:23;;;;;;;4.03;1.10;;;;;;;;;;5020612;28;20058;-69
2023/08/03 06:10:53;;;;;;;3.92;0.85;;;;;;;;;;5005339;28;20494;-70
2023/08/03 06:13:24;;;;;;;3.53;1.00;;;;;;;;;;5008760;28;20133;-70
2023/08/03 06:15:50;;;;;;;7.65;1.33;;;;;;;;;;5004740;28;20524;-69
2023/08/03 06:18:18;;;;;;;2.80;1.02;;;;;;;;;;4994011;28;20130;-70
2023/08/03 06:20:45;;;;;;;2.97;0.77;;;;;;;;;;5008658;28;20052;-69
2023/08/03 06:23:17;;;;;;;5.50;1.63;;;;;;;;;;5008328;28;20489;-70
2023/08/03 06:25:44;;;;;;;3.25;0.90;;;;;;;;;;5008127;28;20081;-70
2023/08/03 06:28:10;;;;;;;3.45;1.05;;;;;;;;;;5005166;28;20053;-70
2023/08/03 06:30:36;;;;;;;5.03;1.48;;;;;;;;;;5008144;28;20046;-69
2023/08/03 06:33:02;;;;;;;7.18;1.35;;;;;;;;;;5006979;28;20046;-70
2023/08/03 06:35:38;;;;;;;3.30;1.20;;;;;;;;;;5007206;28;20414;-71
2023/08/03 06:38:16;;;;;;;5.05;1.13;;;;;;;;;;5005225;28;20882;-70
2023/08/03 06:40:42;;;;;;;7.90;1.00;;;;;;;;;;5007230;28;20033;-69
2023/08/03 06:43:09;;;;;;;2.45;0.98;;;;;;;;;;5006360;28;20076;-71
2023/08/03 06:45:35;;;;;;;3.00;0.88;;;;;;;;;;5008544;28;20095;-72
2023/08/03 06:48:02;;;;;;;2.47;1.02;;;;;;;;;;5007660;28;20538;-71
2023/08/03 06:50:32;;;;;;;1.95;0.90;;;;;;;;;;5005398;28;20526;-70
2023/08/03 06:52:58;;;;;;;2.50;1.00;;;;;;;;;;5008520;28;20046;-71
2023/08/03 06:55:24;;;;;;;2.35;0.85;;;;;;;;;;5008375;28;20045;-70
2023/08/03 06:57:49;;;;;;;3.42;0.90;;;;;;;;;;5008264;28;20414;-70
2023/08/03 07:00:15;;;;;;;3.17;0.80;;;;;;;;;;5005913;28;20053;-72
2023/08/03 07:02:42;;;;;;;3.20;0.90;;;;;;;;;;5001533;28;20751;-71
2023/08/03 07:05:08;;;;;;;2.85;1.10;;;;;;;;;;4999841;28;20148;-70
2023/08/03 07:07:34;;;;;;;3.10;0.82;;;;;;;;;;5000096;28;20195;-71
2023/08/03 07:09:59;;;;;;;3.83;1.00;;;;;;;;;;4997325;28;20670;-69
2023/08/03 07:12:25;;;;;;;4.70;0.77;;;;;;;;;;4999640;28;20467;-69
2023/08/03 07:14:51;;;;;;;5.90;1.13;;;;;;;;;;5007096;28;20128;-69
2023/08/03 07:17:16;;;;;;;5.32;1.35;;;;;;;;;;5007261;28;20151;-69
2023/08/03 07:19:42;;;;;;;5.65;1.25;;;;;;;;;;5005945;28;20052;-70
2023/08/03 07:22:08;;;;;;;4.68;1.00;;;;;;;;;;4999100;28;20065;-69
2023/08/03 07:24:35;;;;;;;4.57;1.13;;;;;;;;;;5000220;28;20728;-69
2023/08/03 07:27:01;;;;;;;3.10;1.10;;;;;;;;;;5007532;28;20081;-70
2023/08/03 07:29:28;;;;;;;2.95;0.95;;;;;;;;;;5014061;28;20053;-69
2023/08/03 07:31:53;;;;;;;2.70;1.63;;;;;;;;;;5006530;28;20132;-69
2023/08/03 07:34:19;;;;;;;2.67;0.80;;;;;;;;;;5010333;28;20591;-70
2023/08/03 07:36:45;;;;;;;2.33;0.70;;;;;;;;;;5008332;28;20054;-70
2023/08/03 07:39:11;;;;;;;6.38;0.95;;;;;;;;;;5003173;28;20045;-71
2023/08/03 07:41:37;;;;;;;1.98;0.70;;;;;;;;;;5003593;28;20034;-71
2023/08/03 07:44:02;;;;;;;4.32;1.17;;;;;;;;;;5007705;28;20483;-71
2023/08/03 07:46:29;;;;;;;4.32;0.80;;;;;;;;;;5007803;28;20044;-70
2023/08/03 07:48:58;;;;;;;1.50;0.70;;;;;;;;;;5003050;28;20057;-70
2023/08/03 07:51:24;;;;;;;3.40;0.60;;;;;;;;;;5005874;28;20046;-69
2023/08/03 07:53:50;;;;;;;3.33;0.88;;;;;;;;;;5002425;28;20489;-70
2023/08/03 07:56:16;;;;;;;2.35;0.70;;;;;;;;;;5001927;28;20050;-70
2023/08/03 07:58:43;;;;;;;1.55;0.70;;;;;;;;;;5005981;28;20111;-70
2023/08/03 08:01:08;;;;;;;1.52;0.70;;;;;;;;;;5003597;28;20034;-70
2023/08/03 08:03:37;;;;;;;4.72;0.47;;;;;;;;;;5006820;28;20510;-72
2023/08/03 08:06:08;;;;;;;2.03;0.60;;;;;;;;;;5002608;28;20049;-71
2023/08/03 08:08:33;;;;;;;1.35;0.65;;;;;;;;;;5011639;28;20041;-70
2023/08/03 08:10:59;;;;;;;6.32;0.80;;;;;;;;;;5002999;28;20056;-71
2023/08/03 08:13:24;;;;;;;2.28;0.70;;;;;;;;;;5013135;28;20033;-69
2023/08/03 08:15:50;;;;;;;1.75;0.65;;;;;;;;;;5001009;28;20061;-70
2023/08/03 08:18:15;;;;;;;2.13;0.70;;;;;;;;;;5002383;28;20073;-71
2023/08/03 08:20:41;;;;;;;2.67;0.80;;;;;;;;;;5009086;28;20068;-71
2023/08/03 08:23:06;;;;;;;1.13;0.47;;;;;;;;;;5002597;28;20129;-70
2023/08/03 08:25:37;;;;;;;3.33;0.70;;;;;;;;;;5011362;28;20037;-70
2023/08/03 08:28:03;;;;;;;5.22;0.47;;;;;;;;;;5006479;28;20784;-69
2023/08/03 08:30:28;;;;;;;1.35;0.60;;;;;;;;;;5007988;28;20054;-69
2023/08/03 08:32:53;;;;;;;1.77;0.60;;;;;;;;;;5003216;28;20132;-69
2023/08/03 08:35:19;;;;;;;2.63;0.60;;;;;;;;;;5009987;28;20071;-70
2023/08/03 08:37:45;;;;;;;2.00;0.73;;;;;;;;;;5002819;28;20049;-69
2023/08/03 08:40:14;;;;;;;2.85;0.60;;;;;;;;;;5001321;28;20137;-69
2023/08/03 08:42:39;;;;;;;1.85;1.00;;;;;;;;;;5002389;28;20140;-71
2023/08/03 08:45:05;;;;;;;1.52;0.38;;;;;;;;;;5005943;28;20136;-70
2023/08/03 08:47:31;;;;;;;2.70;0.60;;;;;;;;;;5001924;28;20077;-70
2023/08/03 08:49:57;;;;;;;3.38;0.70;;;;;;;;;;5001995;28;20338;-70
2023/08/03 08:52:25;;;;;;;4.50;0.50;;;;;;;;;;5008801;28;20136;-71
2023/08/03 08:54:51;;;;;;;3.45;0.70;;;;;;;;;;5002372;28;20136;-70
2023/08/03 08:57:17;;;;;;;0.93;0.60;;;;;;;;;;5002060;28;20120;-69
2023/08/03 08:59:59;;;;;;;1.65;0.50;;;;;;;;;;5002574;28;20044;-70
2023/08/03 09:02:25;;;;;;;4.07;0.65;;;;;;;;;;4998728;28;20053;-71
2023/08/03 09:04:51;;;;;;;2.00;0.50;;;;;;;;;;5006007;28;20045;-71
2023/08/03 09:07:17;;;;;;;3.05;0.70;;;;;;;;;;5009126;28;20060;-72
2023/08/03 09:09:43;;;;;;;1.20;0.68;;;;;;;;;;5005434;28;20038;-71
2023/08/03 09:12:08;;;;;;;2.00;0.60;;;;;;;;;;5001229;28;20108;-72
2023/08/03 09:14:51;;;;;;;2.05;0.73;;;;;;;;;;5007176;28;20582;-70
2023/08/03 09:17:22;;;;;;;1.25;0.77;;;;;;;;;;5003023;28;20089;-72
2023/08/03 09:19:48;;;;;;;1.85;0.77;;;;;;;;;;5005931;28;20043;-72
2023/08/03 09:22:18;;;;;;;7.40;0.77;;;;;;;;;;5002900;28;20141;-71
2023/08/03 09:24:47;;;;;;;3.28;0.98;;;;;;;;;;5007538;28;20052;-72
2023/08/03 09:27:16;;;;;;;2.05;0.50;;;;;;;;;;5004610;28;20388;-72
2023/08/03 09:29:42;;;;;;;0.95;0.65;;;;;;;;;;4997865;28;20060;-71
2023/08/03 09:32:08;;;;;;;2.90;0.80;;;;;;;;;;4998479;28;20046;-70
2023/08/03 09:34:35;;;;;;;2.15;0.52;;;;;;;;;;5005058;28;20049;-72
2023/08/03 09:37:03;;;;;;;3.47;0.75;;;;;;;;;;4999176;28;20400;-72
2023/08/03 09:39:34;;;;;;;2.63;0.60;;;;;;;;;;4999371;28;20048;-70
2023/08/03 09:42:06;;;;;;;1.52;0.77;;;;;;;;;;4997958;28;20034;-72
2023/08/03 09:44:36;;;;;;;1.80;0.70;;;;;;;;;;5017859;28;20052;-70
2023/08/03 09:47:05;;;;;;;5.20;0.63;;;;;;;;;;4996364;28;20084;-72
2023/08/03 09:49:32;;;;;;;2.55;0.90;;;;;;;;;;4999004;28;20095;-70
2023/08/03 09:52:01;;;;;;;2.95;0.88;;;;;;;;;;4998186;28;20050;-71
2023/08/03 09:54:52;;;;;;;0.95;0.68;;;;;;;;;;5002760;28;20133;-71
2023/08/03 09:57:22;;;;;;;1.65;0.60;;;;;;;;;;5013051;28;20057;-71
2023/08/03 09:59:54;;;;;;;1.48;0.73;;;;;;;;;;5021532;28;20079;-71
2023/08/03 10:02:23;;;;;;;0.95;0.60;;;;;;;;;;5000200;28;20050;-71
2023/08/03 10:04:54;;;;;;;1.48;0.80;;;;;;;;;;4999519;28;20041;-72
2023/08/03 10:07:24;;;;;;;1.88;0.75;;;;;;;;;;4999962;28;20104;-71
2023/08/03 10:09:56;;;;;;;1.02;0.50;;;;;;;;;;5003176;28;20060;-71
2023/08/03 10:12:30;;;;;;;1.30;0.52;;;;;;;;;;4998281;28;20053;-71
2023/08/03 10:14:57;;;;;;;5.00;0.77;;;;;;;;;;5008365;28;20068;-71
2023/08/03 10:17:24;;;;;;;2.97;0.50;;;;;;;;;;4999028;28;20092;-71
2023/08/03 10:19:51;;;;;;;1.25;0.60;;;;;;;;;;5002380;28;20445;-71
2023/08/03 10:22:17;;;;;;;0.47;0.40;;;;;;;;;;4999685;28;20061;-71
2023/08/03 10:25:16;;;;;;;0.75;0.57;;;;;;;;;;4998609;28;20038;-71
2023/08/03 10:27:41;;;;;;;2.67;0.63;;;;;;;;;;4999204;28;20054;-70
2023/08/03 10:30:07;;;;;;;3.28;0.80;;;;;;;;;;5003253;28;20136;-72
2023/08/03 10:32:32;;;;;;;1.15;0.60;;;;;;;;;;5014190;28;20049;-73
2023/08/03 10:35:37;;;;;;;1.08;0.50;;;;;;;;;;5014492;28;20057;-72
2023/08/03 10:38:03;;;;;;;1.55;0.55;;;;;;;;;;5004841;28;20033;-73
2023/08/03 10:40:28;;;;;;;3.20;0.50;;;;;;;;;;5002718;28;20048;-72
2023/08/03 10:43:08;;;;;;;5.13;0.70;;;;;;;;;;4998238;28;20112;-71
2023/08/03 10:45:35;;;;;;;5.10;1.15;;;;;;;;;;4997433;28;20049;-69
2023/08/03 10:48:28;;;;;;;3.67;0.90;;;;;;;;;;5005906;28;20054;-71
2023/08/03 10:51:01;;;;;;;1.77;0.70;;;;;;;;;;5019919;28;20128;-71
2023/08/03 10:53:27;;;;;;;1.90;0.50;;;;;;;;;;4996607;28;20092;-71
2023/08/03 10:56:07;;;;;;;1.98;0.47;;;;;;;;;;4994185;28;20049;-71
2023/08/03 10:58:47;;;;;;;1.75;0.82;;;;;;;;;;5004802;28;20052;-72
2023/08/03 11:01:23;;;;;;;1.60;0.70;;;;;;;;;;5003752;28;20171;-70
2023/08/03 11:03:49;;;;;;;5.05;0.80;;;;;;;;;;5003297;28;20042;-71
2023/08/03 11:06:16;;;;;;;1.88;0.50;;;;;;;;;;5004754;28;20079;-71
2023/08/03 11:08:43;;;;;;;1.83;0.75;;;;;;;;;;5000614;28;20077;-70
2023/08/03 11:11:13;;;;;;;3.13;0.70;;;;;;;;;;4960492;28;1093110;-71
2023/08/03 11:13:42;;;;;;;1.42;0.57;;;;;;;;;;4998713;28;20056;-71
2023/08/03 11:16:07;;;;;;;2.60;0.55;;;;;;;;;;5006575;28;20731;-69
2023/08/03 11:18:35;;;;;;;3.13;0.70;;;;;;;;;;5008833;28;20132;-71
2023/08/03 11:21:01;;;;;;;1.42;0.55;;;;;;;;;;5008993;28;20046;-71
2023/08/03 11:23:31;;;;;;;2.05;0.98;;;;;;;;;;5008075;28;20050;-71
2023/08/03 11:25:57;;;;;;;3.45;0.70;;;;;;;;;;4997291;28;20135;-70
2023/08/03 11:28:23;;;;;;;1.40;0.60;;;;;;;;;;5004334;28;20057;-71
2023/08/03 11:30:48;;;;;;;1.40;0.55;;;;;;;;;;5005670;28;20047;-71
2023/08/03 11:33:15;;;;;;;2.25;0.82;;;;;;;;;;5005386;28;20041;-69
2023/08/03 11:35:40;;;;;;;4.55;0.80;;;;;;;;;;5007876;28;20072;-71
2023/08/03 11:38:07;;;;;;;0.77;0.40;;;;;;;;;;5004038;28;20135;-71
2023/08/03 11:40:33;;;;;;;2.60;0.57;;;;;;;;;;4994724;28;20070;-70
2023/08/03 11:42:59;;;;;;;1.77;0.65;;;;;;;;;;4997370;28;20041;-71
2023/08/03 11:45:24;;;;;;;2.00;0.68;;;;;;;;;;4997552;28;20085;-70
2023/08/03 11:47:49;;;;;;;0.65;0.50;;;;;;;;;;4999986;28;20041;-72
2023/08/03 11:50:19;;;;;;;1.02;0.60;;;;;;;;;;5002671;28;20080;-71
2023/08/03 11:52:45;;;;;;;0.88;0.60;;;;;;;;;;5003345;28;20061;-71
2023/08/03 11:55:33;;;;;;;1.95;0.60;;;;;;;;;;5001580;28;20084;-72
2023/08/03 11:58:08;;;;;;;0.70;0.57;;;;;;;;;;4999631;28;20053;-71
2023/08/03 12:00:34;;;;;;;1.10;0.70;;;;;;;;;;5004774;28;20049;-71
2023/08/03 12:03:00;;;;;;;1.15;0.60;;;;;;;;;;5003577;28;20046;-71
2023/08/03 12:05:25;;;;;;;1.23;0.63;;;;;;;;;;5004939;28;20073;-71
2023/08/03 12:07:57;;;;;;;1.20;0.47;;;;;;;;;;5002398;28;20072;-70
2023/08/03 12:10:23;;;;;;;1.17;0.43;;;;;;;;;;5004279;28;20546;-70
2023/08/03 12:12:48;;;;;;;1.25;0.60;;;;;;;;;;5016343;28;20066;-70
2023/08/03 12:15:19;;;;;;;1.33;0.40;;;;;;;;;;5006180;28;20123;-72
2023/08/03 12:17:45;;;;;;;1.13;0.38;;;;;;;;;;5001933;28;20046;-71
2023/08/03 12:20:10;;;;;;;0.50;0.38;;;;;;;;;;4999958;28;20403;-70
2023/08/03 12:22:36;;;;;;;2.38;0.60;;;;;;;;;;5003019;28;20407;-71
2023/08/03 12:25:02;;;;;;;0.77;0.40;;;;;;;;;;5009381;28;20061;-70
2023/08/03 12:27:27;;;;;;;1.10;0.65;;;;;;;;;;5003206;28;20116;-69
2023/08/03 12:29:52;;;;;;;3.55;0.60;;;;;;;;;;5001771;28;20372;-70
2023/08/03 12:32:18;;;;;;;1.13;0.50;;;;;;;;;;5008508;28;20064;-69
2023/08/03 12:34:43;;;;;;;1.98;0.40;;;;;;;;;;5002785;28;20088;-70
2023/08/03 12:37:09;;;;;;;2.13;0.52;;;;;;;;;;5001548;28;20046;-70
2023/08/03 12:39:34;;;;;;;2.22;0.70;;;;;;;;;;5006175;28;20161;-69
2023/08/03 12:41:59;;;;;;;0.43;0.40;;;;;;;;;;5002554;28;20095;-69
2023/08/03 12:44:26;;;;;;;1.13;0.40;;;;;;;;;;5001893;28;20041;-71
2023/08/03 12:46:51;;;;;;;1.08;0.52;;;;;;;;;;5001196;28;20052;-71
2023/08/03 12:49:18;;;;;;;1.85;0.50;;;;;;;;;;5002565;28;20045;-70
2023/08/03 12:51:44;;;;;;;2.97;0.50;;;;;;;;;;5006227;28;20124;-70
2023/08/03 12:54:10;;;;;;;1.17;0.50;;;;;;;;;;5008961;28;20057;-69
2023/08/03 12:56:38;;;;;;;1.17;0.43;;;;;;;;;;5002110;28;20657;-68
2023/08/03 12:59:05;;;;;;;1.35;0.65;;;;;;;;;;5002192;28;20046;-70
2023/08/03 13:01:30;;;;;;;1.58;0.43;;;;;;;;;;5002535;28;20578;-69
2023/08/03 13:03:56;;;;;;;1.35;0.50;;;;;;;;;;5000066;28;20046;-69
2023/08/03 13:06:21;;;;;;;1.33;0.60;;;;;;;;;;5000296;28;20111;-69
2023/08/03 13:08:47;;;;;;;0.52;0.30;;;;;;;;;;5002064;28;20141;-70
2023/08/03 13:11:14;;;;;;;1.33;0.50;;;;;;;;;;5002033;28;20046;-70
2023/08/03 13:13:39;;;;;;;0.85;0.45;;;;;;;;;;5005777;28;20529;-71
2023/08/03 13:16:05;;;;;;;1.55;0.35;;;;;;;;;;5010392;28;20045;-71
2023/08/03 13:18:31;;;;;;;2.33;0.43;;;;;;;;;;5002040;28;20080;-71
2023/08/03 13:20:58;;;;;;;1.92;0.50;;;;;;;;;;5000765;28;20045;-70
2023/08/03 13:23:23;;;;;;;1.38;0.60;;;;;;;;;;5002231;28;20050;-70
2023/08/03 13:25:49;;;;;;;1.45;0.50;;;;;;;;;;5008616;28;20483;-72
2023/08/03 13:28:14;;;;;;;2.30;0.50;;;;;;;;;;4999155;28;20073;-71
2023/08/03 13:30:39;;;;;;;0.65;0.32;;;;;;;;;;5001696;28;20165;-71
2023/08/03 13:33:05;;;;;;;2.63;0.57;;;;;;;;;;5001851;28;21131;-71
2023/08/03 13:35:30;;;;;;;0.70;0.38;;;;;;;;;;5004025;28;20942;-70
2023/08/03 13:37:56;;;;;;;1.13;0.70;;;;;;;;;;5004178;28;20041;-70
2023/08/03 13:40:21;;;;;;;0.98;0.40;;;;;;;;;;5001830;28;20081;-71
2023/08/03 13:42:47;;;;;;;0.73;0.40;;;;;;;;;;5001575;28;20575;-71
2023/08/03 13:45:12;;;;;;;2.15;0.50;;;;;;;;;;5007498;28;20056;-70
2023/08/03 13:47:37;;;;;;;0.93;0.40;;;;;;;;;;5001294;28;20507;-71
2023/08/03 13:50:03;;;;;;;1.20;0.40;;;;;;;;;;5007215;28;20046;-71
2023/08/03 13:52:29;;;;;;;2.45;0.43;;;;;;;;;;5000802;28;20093;-71
2023/08/03 13:54:54;;;;;;;0.40;0.20;;;;;;;;;;5001059;28;20092;-71
2023/08/03 13:57:20;;;;;;;0.73;0.60;;;;;;;;;;5000655;28;20148;-71
2023/08/03 13:59:45;;;;;;;0.73;0.50;;;;;;;;;;5000246;28;20046;-71
2023/08/03 14:02:12;;;;;;;2.90;0.50;;;;;;;;;;5000161;28;20549;-72
2023/08/03 14:04:37;;;;;;;1.63;0.68;;;;;;;;;;4999981;28;20203;-73
2023/08/03 14:07:04;;;;;;;1.42;0.40;;;;;;;;;;5001032;28;20052;-72
2023/08/03 14:09:29;;;;;;;0.80;0.50;;;;;;;;;;4999223;28;20050;-72
2023/08/03 14:11:55;;;;;;;1.25;0.40;;;;;;;;;;5002696;28;20049;-71
2023/08/03 14:14:20;;;;;;;1.05;0.50;;;;;;;;;;5003068;28;20092;-71
2023/08/03 14:16:50;;;;;;;1.13;0.68;;;;;;;;;;5008191;28;20045;-70
2023/08/03 14:19:19;;;;;;;0.98;0.40;;;;;;;;;;5008545;28;20088;-71
2023/08/03 14:21:45;;;;;;;1.83;0.43;;;;;;;;;;5003362;28;20120;-70
2023/08/03 14:24:11;;;;;;;0.30;0.30;;;;;;;;;;5006732;28;20210;-71
2023/08/03 14:26:36;;;;;;;3.40;0.52;;;;;;;;;;5005372;28;20096;-70
2023/08/03 14:29:03;;;;;;;1.15;0.60;;;;;;;;;;5022337;28;20980;-70
2023/08/03 14:31:28;;;;;;;1.88;0.60;;;;;;;;;;5005864;28;20045;-70
2023/08/03 14:33:54;;;;;;;1.08;0.60;;;;;;;;;;5016698;28;20077;-70
2023/08/03 14:36:19;;;;;;;0.77;0.43;;;;;;;;;;5025577;28;20058;-70
2023/08/03 14:38:44;;;;;;;2.42;0.52;;;;;;;;;;5009005;28;20061;-70
2023/08/03 14:41:13;;;;;;;1.08;0.60;;;;;;;;;;4997798;28;20056;-69
2023/08/03 14:43:39;;;;;;;1.35;0.57;;;;;;;;;;5007878;28;20052;-69